createdAt,value
2018-08-03T00:02:13.598Z,19.10
2018-08-03T00:04:42.098Z,19.10
2018-08-03T00:07:10.652Z,19.10
2018-08-03T00:09:39.194Z,19.10
2018-08-03T00:12:07.761Z,19.10
2018-08-03T00:14:36.343Z,19.00
2018-08-03T00:17:04.924Z,19.00
2018-08-03T00:19:33.504Z,19.00
2018-08-03T00:22:02.077Z,19.00
2018-08-03T00:24:31.815Z,19.00
2018-08-03T00:27:00.420Z,19.00
2018-08-03T00:29:28.994Z,19.00
2018-08-03T00:31:57.562Z,19.00
2018-08-03T00:34:26.059Z,18.90
2018-08-03T00:36:54.586Z,18.90
2018-08-03T00:39:23.126Z,18.90
2018-08-03T00:41:51.676Z,18.90
2018-08-03T00:44:20.227Z,18.90
2018-08-03T00:46:48.750Z,18.80
2018-08-03T00:49:17.291Z,18.70
2018-08-03T00:51:45.885Z,18.70
2018-08-03T00:54:14.457Z,18.60
2018-08-03T00:56:43.043Z,18.60
2018-08-03T00:59:11.624Z,18.60
2018-08-03T01:01:40.168Z,18.50
2018-08-03T01:04:08.729Z,18.50
2018-08-03T01:06:37.339Z,18.50
2018-08-03T01:09:08.771Z,18.50
2018-08-03T01:11:37.332Z,18.50
2018-08-03T01:14:06.098Z,18.50
2018-08-03T01:16:38.921Z,18.40
2018-08-03T01:19:07.526Z,18.40
2018-08-03T01:21:36.145Z,18.40
2018-08-03T01:24:04.755Z,18.50
2018-08-03T01:26:33.337Z,18.50
2018-08-03T01:29:02.011Z,18.50
2018-08-03T01:31:30.535Z,18.50
2018-08-03T01:33:59.489Z,18.50
2018-08-03T01:36:28.091Z,18.50
2018-08-03T01:38:56.796Z,18.60
2018-08-03T01:41:25.376Z,18.60
2018-08-03T01:43:54.030Z,18.60
2018-08-03T01:46:22.601Z,18.60
2018-08-03T01:48:51.184Z,18.60
2018-08-03T01:51:19.763Z,18.60
2018-08-03T01:53:48.287Z,18.60
2018-08-03T01:56:16.833Z,18.60
2018-08-03T01:58:45.418Z,18.50
2018-08-03T02:01:13.996Z,18.50
2018-08-03T02:03:42.568Z,18.50
2018-08-03T02:06:11.127Z,18.50
2018-08-03T02:08:39.674Z,18.40
2018-08-03T02:11:08.325Z,18.40
2018-08-03T02:13:36.923Z,18.40
2018-08-03T02:16:05.671Z,18.30
2018-08-03T02:18:34.287Z,18.30
2018-08-03T02:21:03.137Z,18.30
2018-08-03T02:23:31.750Z,18.30
2018-08-03T02:26:00.298Z,18.30
2018-08-03T02:28:28.862Z,18.30
2018-08-03T02:30:57.394Z,18.30
2018-08-03T02:33:25.922Z,18.30
2018-08-03T02:35:54.687Z,18.20
2018-08-03T02:38:23.290Z,18.20
2018-08-03T02:40:51.936Z,18.20
2018-08-03T02:43:20.477Z,18.10
2018-08-03T02:45:48.995Z,18.10
2018-08-03T02:48:17.532Z,18.00
2018-08-03T02:50:46.076Z,18.00
2018-08-03T02:53:14.605Z,17.90
2018-08-03T02:55:43.137Z,17.80
2018-08-03T02:58:11.673Z,17.90
2018-08-03T03:00:40.242Z,17.80
2018-08-03T03:03:08.798Z,17.80
2018-08-03T03:05:37.456Z,17.70
2018-08-03T03:08:06.103Z,17.70
2018-08-03T03:10:34.730Z,17.70
2018-08-03T03:13:03.389Z,17.70
2018-08-03T03:15:31.990Z,17.70
2018-08-03T03:18:00.585Z,17.70
2018-08-03T03:20:29.127Z,17.60
2018-08-03T03:22:57.704Z,17.60
2018-08-03T03:25:26.282Z,17.60
2018-08-03T03:27:54.862Z,17.60
2018-08-03T03:30:23.457Z,17.60
2018-08-03T03:32:52.052Z,17.60
2018-08-03T03:35:20.627Z,17.60
2018-08-03T03:37:49.195Z,17.60
2018-08-03T03:40:17.763Z,17.60
2018-08-03T03:42:46.325Z,17.70
2018-08-03T03:45:14.848Z,17.70
2018-08-03T03:47:43.389Z,17.80
2018-08-03T03:50:11.943Z,17.80
2018-08-03T03:52:40.493Z,17.90
2018-08-03T03:55:09.057Z,17.90
2018-08-03T03:57:37.710Z,18.00
2018-08-03T04:00:07.184Z,18.10
2018-08-03T04:02:35.980Z,18.10
2018-08-03T04:05:05.029Z,18.20
2018-08-03T04:07:33.636Z,18.20
2018-08-03T04:10:02.332Z,18.30
2018-08-03T04:12:30.905Z,18.40
2018-08-03T04:14:59.495Z,18.50
2018-08-03T04:17:28.063Z,18.50
2018-08-03T04:19:56.665Z,18.60
2018-08-03T04:22:25.250Z,18.60
2018-08-03T04:24:53.931Z,18.60
2018-08-03T04:27:22.515Z,18.70
2018-08-03T04:29:51.091Z,18.70
2018-08-03T04:32:19.691Z,18.70
2018-08-03T04:34:48.251Z,18.70
2018-08-03T04:37:16.831Z,18.70
2018-08-03T04:39:45.415Z,18.90
2018-08-03T04:42:13.966Z,19.00
2018-08-03T04:44:42.603Z,19.30
2018-08-03T04:47:11.166Z,19.70
2018-08-03T04:49:39.798Z,20.00
2018-08-03T04:52:08.456Z,20.20
2018-08-03T04:54:37.169Z,20.40
2018-08-03T04:57:05.808Z,20.50
2018-08-03T04:59:34.703Z,20.50
2018-08-03T05:02:03.345Z,20.50
2018-08-03T05:04:31.952Z,20.50
2018-08-03T05:07:00.495Z,20.50
2018-08-03T05:09:29.091Z,20.60
2018-08-03T05:11:57.733Z,20.60
2018-08-03T05:14:26.311Z,20.60
2018-08-03T05:16:55.270Z,20.60
2018-08-03T05:19:23.933Z,20.60
2018-08-03T05:21:52.507Z,20.60
2018-08-03T05:24:21.108Z,20.60
2018-08-03T05:26:49.664Z,20.60
2018-08-03T05:29:18.282Z,20.60
2018-08-03T05:31:46.891Z,20.50
2018-08-03T05:34:15.535Z,20.60
2018-08-03T05:36:44.295Z,20.70
2018-08-03T05:39:12.956Z,20.70
2018-08-03T05:41:41.696Z,20.70
2018-08-03T05:44:10.499Z,20.70
2018-08-03T05:46:39.502Z,20.80
2018-08-03T05:49:08.097Z,20.80
2018-08-03T05:51:36.963Z,20.90
2018-08-03T05:54:06.065Z,21.00
2018-08-03T05:56:36.010Z,21.10
2018-08-03T05:59:05.448Z,21.40
2018-08-03T06:01:34.524Z,21.70
2018-08-03T06:04:03.641Z,22.00
2018-08-03T06:06:32.395Z,22.20
2018-08-03T06:09:01.039Z,22.50
2018-08-03T06:11:29.649Z,22.60
2018-08-03T06:13:58.236Z,22.80
2018-08-03T06:16:26.894Z,22.90
2018-08-03T06:18:55.442Z,22.90
2018-08-03T06:21:23.983Z,22.90
2018-08-03T06:23:52.518Z,22.90
2018-08-03T06:26:21.061Z,23.00
2018-08-03T06:28:49.593Z,23.30
2018-08-03T06:31:18.188Z,23.50
2018-08-03T06:33:46.795Z,23.60
2018-08-03T06:36:15.402Z,23.60
2018-08-03T06:38:43.958Z,23.90
2018-08-03T06:43:40.824Z,24.30
2018-08-03T06:46:09.385Z,24.50
2018-08-03T06:48:37.967Z,24.70
2018-08-03T06:51:06.568Z,24.70
2018-08-03T06:53:35.155Z,24.90
2018-08-03T06:56:03.813Z,25.00
2018-08-03T06:58:32.422Z,25.10
2018-08-03T07:01:00.948Z,25.20
2018-08-03T07:03:29.586Z,25.30
2018-08-03T07:05:58.159Z,25.50
2018-08-03T07:08:26.734Z,25.70
2018-08-03T07:10:55.326Z,25.80
2018-08-03T07:13:23.911Z,25.90
2018-08-03T07:15:52.503Z,25.90
2018-08-03T07:18:21.436Z,26.00
2018-08-03T07:20:50.134Z,26.00
2018-08-03T07:23:18.937Z,26.10
2018-08-03T07:25:47.780Z,26.20
2018-08-03T07:28:16.329Z,26.30
2018-08-03T07:30:44.910Z,26.40
2018-08-03T07:33:13.677Z,26.50
2018-08-03T07:35:42.368Z,26.70
2018-08-03T07:38:11.033Z,26.90
2018-08-03T07:40:39.726Z,27.00
2018-08-03T07:43:08.612Z,27.20
2018-08-03T07:45:37.436Z,27.30
2018-08-03T07:48:06.477Z,27.30
2018-08-03T07:50:35.384Z,27.50
2018-08-03T07:53:04.352Z,27.60
2018-08-03T07:55:33.751Z,27.80
2018-08-03T07:58:03.600Z,28.00
2018-08-03T08:00:32.904Z,28.20
2018-08-03T08:03:04.688Z,28.10
2018-08-03T08:05:33.832Z,28.20
2018-08-03T08:08:04.821Z,28.20
2018-08-03T08:10:34.001Z,28.30
2018-08-03T08:13:03.047Z,28.50
2018-08-03T08:15:32.368Z,28.70
2018-08-03T08:18:01.377Z,29.00
2018-08-03T08:20:30.286Z,29.30
2018-08-03T08:22:59.319Z,29.50
2018-08-03T08:25:28.986Z,29.70
2018-08-03T08:27:58.879Z,29.80
2018-08-03T08:30:28.848Z,29.80
2018-08-03T08:32:58.604Z,29.90
2018-08-03T08:35:28.380Z,30.00
2018-08-03T08:37:57.833Z,30.20
2018-08-03T08:40:27.940Z,30.30
2018-08-03T08:42:56.904Z,30.40
2018-08-03T08:45:25.838Z,30.40
2018-08-03T08:47:54.958Z,30.60
2018-08-03T08:50:24.096Z,30.70
2018-08-03T08:52:53.542Z,30.90
2018-08-03T08:55:22.873Z,31.10
2018-08-03T08:57:52.321Z,31.20
2018-08-03T09:00:22.147Z,31.20
2018-08-03T09:02:51.869Z,31.30
2018-08-03T09:05:20.988Z,31.40
2018-08-03T09:07:51.154Z,31.40
2018-08-03T09:10:20.874Z,31.50
2018-08-03T09:12:50.843Z,31.50
2018-08-03T09:15:20.926Z,31.50
2018-08-03T09:17:49.571Z,31.50
2018-08-03T09:20:18.234Z,31.40
2018-08-03T09:22:46.922Z,31.50
2018-08-03T09:25:15.576Z,31.60
2018-08-03T09:27:44.303Z,31.70
2018-08-03T09:30:13.146Z,32.00
2018-08-03T09:32:42.127Z,32.20
2018-08-03T09:35:11.239Z,32.20
2018-08-03T09:37:40.175Z,32.10
2018-08-03T09:40:08.892Z,31.80
2018-08-03T09:42:37.710Z,31.50
2018-08-03T09:45:06.435Z,31.30
2018-08-03T09:47:35.114Z,31.10
2018-08-03T09:50:04.266Z,31.10
2018-08-03T09:52:33.352Z,30.90
2018-08-03T09:55:02.107Z,30.70
2018-08-03T09:57:30.731Z,30.60
2018-08-03T09:59:59.346Z,30.50
2018-08-03T10:02:28.143Z,30.40
2018-08-03T10:04:56.828Z,30.30
2018-08-03T10:07:25.663Z,30.30
2018-08-03T10:09:54.387Z,30.30
2018-08-03T10:12:23.131Z,30.20
2018-08-03T10:14:51.879Z,30.30
2018-08-03T10:17:20.640Z,30.30
2018-08-03T10:19:49.338Z,30.30
2018-08-03T10:22:18.027Z,30.30
2018-08-03T10:24:46.965Z,30.30
2018-08-03T10:27:15.779Z,30.30
2018-08-03T10:29:44.610Z,30.20
2018-08-03T10:32:13.353Z,30.30
2018-08-03T10:34:42.131Z,30.20
2018-08-03T10:37:11.150Z,30.20
2018-08-03T10:39:39.877Z,30.20
2018-08-03T10:42:08.547Z,30.10
2018-08-03T10:44:37.461Z,30.00
2018-08-03T10:47:06.339Z,30.00
2018-08-03T10:49:35.036Z,30.00
2018-08-03T10:52:03.737Z,30.00
2018-08-03T10:54:32.431Z,30.10
2018-08-03T10:57:01.230Z,30.10
2018-08-03T10:59:29.987Z,30.10
2018-08-03T11:01:58.759Z,30.20
2018-08-03T11:04:27.499Z,30.20
2018-08-03T11:06:56.316Z,30.10
2018-08-03T11:09:24.975Z,30.00
2018-08-03T11:11:53.708Z,30.10
2018-08-03T11:14:22.390Z,30.10
2018-08-03T11:16:51.578Z,30.10
2018-08-03T11:19:22.072Z,30.10
2018-08-03T11:21:52.427Z,30.20
2018-08-03T11:24:22.218Z,30.20
2018-08-03T11:26:52.245Z,30.20
2018-08-03T11:29:21.386Z,30.20
2018-08-03T11:32:00.818Z,30.10
2018-08-03T11:34:31.755Z,30.20
2018-08-03T11:37:08.146Z,30.20
2018-08-03T11:39:42.333Z,30.20
2018-08-03T11:42:11.184Z,30.20
2018-08-03T11:44:42.252Z,30.20
2018-08-03T11:47:12.637Z,30.30
2018-08-03T11:49:47.996Z,30.40
2018-08-03T11:52:19.151Z,30.40
2018-08-03T11:54:50.978Z,30.40
2018-08-03T11:57:23.032Z,30.40
2018-08-03T11:59:56.188Z,30.40
2018-08-03T12:02:29.524Z,30.40
2018-08-03T12:04:58.408Z,30.50
2018-08-03T12:07:28.383Z,30.50
2018-08-03T12:09:59.631Z,30.60
2018-08-03T12:12:42.202Z,30.60
2018-08-03T12:15:11.329Z,30.70
2018-08-03T12:17:44.123Z,30.80
2018-08-03T12:20:16.897Z,30.90
2018-08-03T12:22:48.484Z,30.80
2018-08-03T12:25:19.372Z,30.90
2018-08-03T12:27:56.805Z,31.00
2018-08-03T12:30:36.505Z,31.10
2018-08-03T12:33:06.485Z,31.20
2018-08-03T12:35:35.771Z,31.30
2018-08-03T12:38:07.614Z,31.30
2018-08-03T12:40:39.155Z,31.40
2018-08-03T12:43:08.647Z,31.40
2018-08-03T12:45:38.416Z,31.40
2018-08-03T12:48:10.324Z,31.40
2018-08-03T12:50:40.427Z,31.50
2018-08-03T12:53:10.548Z,31.50
2018-08-03T12:55:47.185Z,31.60
2018-08-03T12:58:16.183Z,31.60
2018-08-03T13:00:54.402Z,31.70
2018-08-03T13:03:25.930Z,31.80
2018-08-03T13:05:57.501Z,31.90
2018-08-03T13:08:27.244Z,32.00
2018-08-03T13:10:56.038Z,32.10
2018-08-03T13:13:24.763Z,32.30
2018-08-03T13:15:53.608Z,32.40
2018-08-03T13:18:22.321Z,32.50
2018-08-03T13:20:55.363Z,32.50
2018-08-03T13:23:28.321Z,32.50
2018-08-03T13:25:58.014Z,32.60
2018-08-03T13:28:33.992Z,32.70
2018-08-03T13:31:05.017Z,32.70
2018-08-03T13:33:40.962Z,32.70
2018-08-03T13:36:10.990Z,32.70
2018-08-03T13:38:39.842Z,32.70
2018-08-03T13:41:08.596Z,32.70
2018-08-03T13:43:37.301Z,32.80
2018-08-03T13:46:06.494Z,32.80
2018-08-03T13:48:35.482Z,32.90
2018-08-03T13:51:04.669Z,33.00
2018-08-03T13:53:33.473Z,33.00
2018-08-03T13:56:02.328Z,33.00
2018-08-03T13:58:31.233Z,33.00
2018-08-03T14:01:11.289Z,33.00
2018-08-03T14:03:40.126Z,33.00
2018-08-03T14:06:09.004Z,33.00
2018-08-03T14:08:37.776Z,33.00
2018-08-03T14:11:06.808Z,33.00
2018-08-03T14:13:35.548Z,33.10
2018-08-03T14:16:04.258Z,33.00
2018-08-03T14:18:32.978Z,33.10
2018-08-03T14:21:01.694Z,33.10
2018-08-03T14:23:30.399Z,33.10
2018-08-03T14:25:59.082Z,33.10
2018-08-03T14:28:27.890Z,33.10
2018-08-03T14:30:56.676Z,33.20
2018-08-03T14:33:25.375Z,33.20
2018-08-03T14:35:54.606Z,33.20
2018-08-03T14:38:23.455Z,33.20
2018-08-03T14:40:52.409Z,33.20
2018-08-03T14:43:21.214Z,33.20
2018-08-03T14:45:49.958Z,33.20
2018-08-03T14:48:18.646Z,33.20
2018-08-03T14:50:47.387Z,33.10
2018-08-03T14:53:16.139Z,33.00
2018-08-03T14:55:44.840Z,33.00
2018-08-03T14:58:13.619Z,33.00
2018-08-03T15:00:42.391Z,33.00
2018-08-03T15:03:11.282Z,32.90
2018-08-03T15:05:40.060Z,32.80
2018-08-03T15:08:08.995Z,32.80
2018-08-03T15:10:37.752Z,32.80
2018-08-03T15:13:06.690Z,32.80
2018-08-03T15:15:35.331Z,32.70
2018-08-03T15:18:04.080Z,32.70
2018-08-03T15:20:33.215Z,32.60
2018-08-03T15:23:02.191Z,32.50
2018-08-03T15:25:30.998Z,32.40
2018-08-03T15:27:59.777Z,32.40
2018-08-03T15:30:28.517Z,32.30
2018-08-03T15:32:57.194Z,32.10
2018-08-03T15:35:26.641Z,32.00
2018-08-03T15:37:55.411Z,32.00
2018-08-03T15:40:24.290Z,31.90
2018-08-03T15:42:53.011Z,31.90
2018-08-03T15:45:21.861Z,31.90
2018-08-03T15:47:50.540Z,31.80
2018-08-03T15:50:19.438Z,31.80
2018-08-03T15:52:48.232Z,31.70
2018-08-03T15:55:16.984Z,31.70
2018-08-03T15:57:45.809Z,31.70
2018-08-03T16:00:14.591Z,31.70
2018-08-03T16:02:43.482Z,31.70
2018-08-03T16:05:12.380Z,31.60
2018-08-03T16:07:41.085Z,31.60
2018-08-03T16:10:09.971Z,31.50
2018-08-03T16:12:38.784Z,31.40
2018-08-03T16:15:07.915Z,31.40
2018-08-03T16:17:36.726Z,31.30
2018-08-03T16:20:05.796Z,31.30
2018-08-03T16:22:35.365Z,31.20
2018-08-03T16:25:04.891Z,31.20
2018-08-03T16:27:33.958Z,31.20
2018-08-03T16:30:02.908Z,31.10
2018-08-03T16:32:31.948Z,31.10
2018-08-03T16:35:00.948Z,31.10
2018-08-03T16:37:31.441Z,31.00
2018-08-03T16:40:00.468Z,31.00
2018-08-03T16:42:29.220Z,31.00
2018-08-03T16:44:58.058Z,30.90
2018-08-03T16:47:27.331Z,30.90
2018-08-03T16:49:56.247Z,30.80
2018-08-03T16:52:25.388Z,30.80
2018-08-03T16:54:54.420Z,30.80
2018-08-03T16:57:23.190Z,30.70
2018-08-03T16:59:52.420Z,30.70
2018-08-03T17:02:21.899Z,30.70
2018-08-03T17:04:50.802Z,30.60
2018-08-03T17:07:19.565Z,30.60
2018-08-03T17:09:48.263Z,30.50
2018-08-03T17:12:17.198Z,30.50
2018-08-03T17:14:45.910Z,30.40
2018-08-03T17:17:14.644Z,30.30
2018-08-03T17:19:43.443Z,30.30
2018-08-03T17:22:12.861Z,30.20
2018-08-03T17:24:41.825Z,30.10
2018-08-03T17:27:10.933Z,30.00
2018-08-03T17:29:39.894Z,30.00
2018-08-03T17:32:08.790Z,29.90
2018-08-03T17:34:37.696Z,29.80
2018-08-03T17:37:07.029Z,29.70
2018-08-03T17:39:35.759Z,29.50
2018-08-03T17:42:04.829Z,29.40
2018-08-03T17:44:33.808Z,29.30
2018-08-03T17:47:04.064Z,29.10
2018-08-03T17:49:34.289Z,28.90
2018-08-03T17:52:03.051Z,28.80
2018-08-03T17:54:32.367Z,28.60
2018-08-03T17:57:01.346Z,28.50
2018-08-03T17:59:30.383Z,28.50
2018-08-03T18:01:59.119Z,28.30
2018-08-03T18:04:27.913Z,28.20
2018-08-03T18:06:56.827Z,28.10
2018-08-03T18:09:25.640Z,27.80
2018-08-03T18:11:54.593Z,27.60
2018-08-03T18:14:23.283Z,27.40
2018-08-03T18:16:52.475Z,27.20
2018-08-03T18:19:21.160Z,27.00
2018-08-03T18:21:49.843Z,26.70
2018-08-03T18:24:18.479Z,26.60
2018-08-03T18:26:47.113Z,26.40
2018-08-03T18:29:15.859Z,26.20
2018-08-03T18:31:44.463Z,26.00
2018-08-03T18:34:16.990Z,25.90
2018-08-03T18:36:45.837Z,25.70
2018-08-03T18:39:14.410Z,25.50
2018-08-03T18:41:43.670Z,25.30
2018-08-03T18:44:12.570Z,25.20
2018-08-03T18:46:41.513Z,25.10
2018-08-03T18:49:10.045Z,24.90
2018-08-03T18:51:38.654Z,24.80
2018-08-03T18:54:07.262Z,24.60
2018-08-03T18:56:35.863Z,24.40
2018-08-03T18:59:04.435Z,24.30
2018-08-03T19:01:33.356Z,24.10
2018-08-03T19:04:02.465Z,24.00
2018-08-03T19:06:31.031Z,23.90
2018-08-03T19:08:59.635Z,23.80
2018-08-03T19:11:28.439Z,23.60
2018-08-03T19:13:57.062Z,23.50
2018-08-03T19:16:25.648Z,23.50
2018-08-03T19:18:54.504Z,23.40
2018-08-03T19:21:23.126Z,23.20
2018-08-03T19:23:53.762Z,23.10
2018-08-03T19:26:22.407Z,23.00
2018-08-03T19:28:51.125Z,22.90
2018-08-03T19:31:19.681Z,22.80
2018-08-03T19:33:48.263Z,22.70
2018-08-03T19:36:16.835Z,22.60
2018-08-03T19:38:45.594Z,22.50
2018-08-03T19:41:14.183Z,22.50
2018-08-03T19:43:42.747Z,22.40
2018-08-03T19:46:11.331Z,22.40
2018-08-03T19:48:39.965Z,22.30
2018-08-03T19:51:08.731Z,22.30
2018-08-03T19:53:37.395Z,22.20
2018-08-03T19:56:05.928Z,22.10
2018-08-03T19:58:34.546Z,22.10
2018-08-03T20:01:03.312Z,22.00
2018-08-03T20:03:31.978Z,21.90
2018-08-03T20:06:00.510Z,21.90
2018-08-03T20:08:29.075Z,21.80
2018-08-03T20:10:57.666Z,21.70
2018-08-03T20:13:26.311Z,21.60
2018-08-03T20:15:55.319Z,21.60
2018-08-03T20:18:23.889Z,21.50
2018-08-03T20:20:52.403Z,21.50
2018-08-03T20:23:20.950Z,21.40
2018-08-03T20:25:49.490Z,21.30
2018-08-03T20:28:18.067Z,21.30
2018-08-03T20:30:46.700Z,21.20
2018-08-03T20:33:15.297Z,21.20
2018-08-03T20:35:43.924Z,21.10
2018-08-03T20:38:12.609Z,21.10
2018-08-03T20:40:41.274Z,21.00
2018-08-03T20:43:10.012Z,20.90
2018-08-03T20:45:38.771Z,20.90
2018-08-03T20:48:07.359Z,20.80
2018-08-03T20:50:35.912Z,20.80
2018-08-03T20:53:04.556Z,20.70
2018-08-03T20:55:33.776Z,20.70
2018-08-03T20:58:02.417Z,20.60
2018-08-03T21:00:31.285Z,20.60
2018-08-03T21:02:59.819Z,20.50
2018-08-03T21:05:28.349Z,20.50
2018-08-03T21:07:56.940Z,20.50
2018-08-03T21:10:25.446Z,20.40
2018-08-03T21:12:54.023Z,20.30
2018-08-03T21:15:22.522Z,20.30
2018-08-03T21:17:51.130Z,20.30
2018-08-03T21:20:19.710Z,20.20
2018-08-03T21:22:48.275Z,20.20
2018-08-03T21:25:16.801Z,20.10
2018-08-03T21:27:45.382Z,20.10
2018-08-03T21:30:14.041Z,20.00
2018-08-03T21:32:42.556Z,20.00
2018-08-03T21:35:11.126Z,19.90
2018-08-03T21:37:39.683Z,19.90
2018-08-03T21:40:08.262Z,19.80
2018-08-03T21:42:36.785Z,19.80
2018-08-03T21:45:05.835Z,19.80
2018-08-03T21:47:34.369Z,19.80
2018-08-03T21:50:02.975Z,19.70
2018-08-03T21:52:31.930Z,19.70
2018-08-03T21:55:00.535Z,19.70
2018-08-03T21:57:29.273Z,19.60
2018-08-03T21:59:57.963Z,19.60
2018-08-03T22:02:26.620Z,19.60
2018-08-03T22:04:55.186Z,19.60
2018-08-03T22:07:23.751Z,19.60
2018-08-03T22:09:52.327Z,19.60
2018-08-03T22:12:20.858Z,19.50
2018-08-03T22:14:49.392Z,19.50
2018-08-03T22:17:17.989Z,19.50
2018-08-03T22:19:46.534Z,19.50
2018-08-03T22:22:15.107Z,19.50
2018-08-03T22:24:43.673Z,19.50
2018-08-03T22:27:12.307Z,19.50
2018-08-03T22:29:40.869Z,19.50
2018-08-03T22:32:09.517Z,19.50
2018-08-03T22:34:38.061Z,19.40
2018-08-03T22:37:06.705Z,19.40
2018-08-03T22:39:35.288Z,19.40
2018-08-03T22:42:03.835Z,19.40
2018-08-03T22:44:32.482Z,19.40
2018-08-03T22:47:01.126Z,19.30
2018-08-03T22:49:29.696Z,19.30
2018-08-03T22:51:58.232Z,19.30
2018-08-03T22:54:26.811Z,19.30
2018-08-03T22:56:55.336Z,19.30
2018-08-03T22:59:23.878Z,19.30
2018-08-03T23:01:52.397Z,19.30
2018-08-03T23:04:20.938Z,19.30
2018-08-03T23:06:49.475Z,19.30
2018-08-03T23:09:18.015Z,19.30
2018-08-03T23:11:46.547Z,19.20
2018-08-03T23:14:15.115Z,19.20
2018-08-03T23:16:43.714Z,19.20
2018-08-03T23:19:12.270Z,19.10
2018-08-03T23:21:40.825Z,19.10
2018-08-03T23:24:09.406Z,19.00
2018-08-03T23:26:37.947Z,19.00
2018-08-03T23:29:06.476Z,19.00
2018-08-03T23:31:35.059Z,18.90
2018-08-03T23:34:03.678Z,18.90
2018-08-03T23:36:32.240Z,18.90
2018-08-03T23:39:00.779Z,18.80
2018-08-03T23:41:29.343Z,18.80
2018-08-03T23:43:57.893Z,18.80
2018-08-03T23:46:26.459Z,18.70
2018-08-03T23:48:54.997Z,18.70
2018-08-03T23:51:23.578Z,18.70
2018-08-03T23:53:52.134Z,18.70
2018-08-03T23:56:20.684Z,18.70
2018-08-03T23:58:49.232Z,18.60
